Time;durP1;ratioP1;P1;durP2;ratioP2;P2;SDS_P1;SDS_P2;PMS_P1;PMS_P2;Temp;Humidity;BMP_temperature;BMP_pressure;BME280_temperature;BME280_humidity;BME280_pressure;Samples;Min_cycle;Max_cycle;Signal;HPM_P1;HPM_P2
2022/12/16 00:01:06;;;;;;;;;;;0.20;92.00;;;;;;5070750;28;2246;-68
2022/12/16 00:03:35;;;;;;;;;;;0.30;91.80;;;;;;5068534;28;1303;-69
2022/12/16 00:06:03;;;;;;;;;;;0.30;91.80;;;;;;5065092;28;1088;-70
2022/12/16 00:08:34;;;;;;;;;;;0.30;91.80;;;;;;5063050;28;1083;-71
2022/12/16 00:11:02;;;;;;;;;;;0.30;91.60;;;;;;5063852;28;1727;-70
2022/12/16 00:13:30;;;;;;;;;;;0.40;91.60;;;;;;5060979;28;1283;-73
2022/12/16 00:15:59;;;;;;;;;;;0.30;92.00;;;;;;5062112;28;1029;-75
2022/12/16 00:18:27;;;;;;;;;;;0.30;92.00;;;;;;5064065;28;1077;-75
2022/12/16 00:20:55;;;;;;;;;;;0.40;91.80;;;;;;5066504;28;1991;-75
2022/12/16 00:23:22;;;;;;;;;;;0.40;91.50;;;;;;5062177;28;1269;-75
2022/12/16 00:25:51;;;;;;;;;;;0.40;91.40;;;;;;5064860;28;1131;-75
2022/12/16 00:28:21;;;;;;;;;;;0.50;91.50;;;;;;5063409;28;1252;-73
2022/12/16 00:30:50;;;;;;;;;;;0.50;91.20;;;;;;5066088;28;1051;-72
2022/12/16 00:33:18;;;;;;;;;;;0.50;91.30;;;;;;5063727;28;1712;-71
2022/12/16 00:35:46;;;;;;;;;;;0.40;91.40;;;;;;5066081;28;1092;-70
2022/12/16 00:38:14;;;;;;;;;;;0.40;91.40;;;;;;5066753;28;1076;-70
2022/12/16 00:40:42;;;;;;;;;;;0.50;91.10;;;;;;5066436;28;1988;-70
2022/12/16 00:43:11;;;;;;;;;;;0.30;91.30;;;;;;5063035;28;1553;-70
2022/12/16 00:45:38;;;;;;;;;;;0.40;91.40;;;;;;5065153;28;1434;-70
2022/12/16 00:48:06;;;;;;;;;;;0.50;91.10;;;;;;5063517;28;1106;-71
2022/12/16 00:50:35;;;;;;;;;;;0.30;91.20;;;;;;5060124;28;1451;-71
2022/12/16 00:53:02;;;;;;;;;;;0.30;91.50;;;;;;5058148;28;1272;-71
2022/12/16 00:55:31;;;;;;;;;;;0.30;91.40;;;;;;5070616;28;1153;-72
2022/12/16 00:57:59;;;;;;;;;;;0.40;91.40;;;;;;5064217;28;1052;-71
2022/12/16 01:00:27;;;;;;;;;;;0.40;91.40;;;;;;5070457;28;1992;-71
2022/12/16 01:02:55;;;;;;;;;;;0.40;91.10;;;;;;5066064;28;1369;-72
2022/12/16 01:05:25;;;;;;;;;;;0.50;91.10;;;;;;5063605;28;1256;-72
2022/12/16 01:07:53;;;;;;;;;;;0.40;90.70;;;;;;5064028;28;1117;-72
2022/12/16 01:10:21;;;;;;;;;;;0.30;91.00;;;;;;5063643;28;1044;-73
2022/12/16 01:12:49;;;;;;;;;;;0.50;91.10;;;;;;5065925;28;1298;-73
2022/12/16 01:15:17;;;;;;;;;;;0.30;90.80;;;;;;5068108;28;2173;-71
2022/12/16 01:17:46;;;;;;;;;;;0.40;91.10;;;;;;5060119;28;1045;-70
2022/12/16 01:20:14;;;;;;;;;;;0.30;91.00;;;;;;5063978;28;1492;-71
2022/12/16 01:22:42;;;;;;;;;;;0.30;91.00;;;;;;5064194;28;1993;-70
2022/12/16 01:25:11;;;;;;;;;;;0.30;91.00;;;;;;5070400;28;1021;-72
2022/12/16 01:27:39;;;;;;;;;;;0.40;91.00;;;;;;5061432;28;1531;-69
2022/12/16 01:30:08;;;;;;;;;;;0.40;90.90;;;;;;5064672;28;1212;-67
2022/12/16 01:32:36;;;;;;;;;;;0.40;91.00;;;;;;5058075;28;1415;-68
2022/12/16 01:35:05;;;;;;;;;;;0.40;90.70;;;;;;5065136;28;1589;-69
2022/12/16 01:37:50;;;;;;;;;;;0.30;90.90;;;;;;5067509;28;1338;-70
2022/12/16 01:40:19;;;;;;;;;;;0.40;91.00;;;;;;5065252;28;1001;-69
2022/12/16 01:42:46;;;;;;;;;;;0.30;91.00;;;;;;5062949;28;1914;-70
2022/12/16 01:45:29;;;;;;;;;;;0.30;91.10;;;;;;5064326;28;985;-69
2022/12/16 01:47:58;;;;;;;;;;;0.30;91.10;;;;;;5059412;28;1235;-69
2022/12/16 01:50:28;;;;;;;;;;;0.10;91.30;;;;;;5060827;28;1083;-68
2022/12/16 01:52:57;;;;;;;;;;;0.10;91.40;;;;;;5063099;28;1387;-69
2022/12/16 01:55:26;;;;;;;;;;;-0.10;91.50;;;;;;5060159;28;1120;-70
2022/12/16 01:57:56;;;;;;;;;;;-0.10;91.80;;;;;;5064120;28;996;-68
2022/12/16 02:00:23;;;;;;;;;;;-0.10;91.70;;;;;;5063370;28;1112;-68
2022/12/16 02:02:52;;;;;;;;;;;-0.20;92.10;;;;;;5064663;28;1906;-68
2022/12/16 02:05:21;;;;;;;;;;;-0.20;92.00;;;;;;5064370;28;1055;-67
2022/12/16 02:07:54;;;;;;;;;;;-0.10;92.00;;;;;;5064045;28;1316;-67
2022/12/16 02:10:26;;;;;;;;;;;-0.20;91.90;;;;;;5068615;28;1156;-67
2022/12/16 02:18:09;;;;;;;;;;;-0.30;92.10;;;;;;5043834;28;1815;-69
2022/12/16 02:20:58;;;;;;;;;;;-0.30;92.00;;;;;;5051268;28;1135;-71
2022/12/16 02:23:38;;;;;;;;;;;-0.40;91.90;;;;;;5044317;28;1910;-70
2022/12/16 02:26:14;;;;;;;;;;;-0.40;92.00;;;;;;5031865;28;1175;-71
2022/12/16 02:28:53;;;;;;;;;;;-0.40;92.20;;;;;;5032697;28;997;-71
2022/12/16 02:31:28;;;;;;;;;;;-0.40;92.10;;;;;;5032272;28;1062;-71
2022/12/16 02:34:01;;;;;;;;;;;-0.60;92.30;;;;;;5031316;28;1334;-70
2022/12/16 02:36:36;;;;;;;;;;;-0.70;92.50;;;;;;5032900;28;1109;-72
2022/12/16 02:39:05;;;;;;;;;;;-0.70;92.60;;;;;;5032726;28;1116;-70
2022/12/16 02:41:37;;;;;;;;;;;-0.70;92.40;;;;;;5034890;28;1915;-70
2022/12/16 02:44:06;;;;;;;;;;;-0.80;92.70;;;;;;5036804;28;1441;-70
2022/12/16 02:46:40;;;;;;;;;;;-0.80;92.70;;;;;;5036763;28;1076;-71
2022/12/16 02:49:08;;;;;;;;;;;-0.80;92.60;;;;;;5036792;28;1015;-71
2022/12/16 02:51:37;;;;;;;;;;;-0.90;92.70;;;;;;5036691;28;1141;-71
2022/12/16 02:54:05;;;;;;;;;;;-1.10;93.10;;;;;;5035903;28;1290;-71
2022/12/16 02:56:40;;;;;;;;;;;-1.10;93.20;;;;;;5036086;28;2090;-71
2022/12/16 02:59:14;;;;;;;;;;;-1.00;93.10;;;;;;5036729;28;1014;-72
2022/12/16 03:01:47;;;;;;;;;;;-1.10;93.10;;;;;;5035406;28;1910;-72
2022/12/16 03:04:19;;;;;;;;;;;-1.10;93.10;;;;;;5036604;28;1370;-71
2022/12/16 03:06:48;;;;;;;;;;;-1.30;93.30;;;;;;5036415;28;1097;-71
2022/12/16 03:09:18;;;;;;;;;;;-1.30;93.40;;;;;;5035842;28;1580;-71
2022/12/16 03:11:47;;;;;;;;;;;-1.40;93.50;;;;;;5037685;28;1011;-71
2022/12/16 03:14:16;;;;;;;;;;;-1.30;93.50;;;;;;5036485;28;1315;-71
2022/12/16 03:16:46;;;;;;;;;;;-1.30;93.50;;;;;;5036122;28;1292;-72
2022/12/16 03:19:14;;;;;;;;;;;-1.40;93.40;;;;;;5036515;28;1010;-70
2022/12/16 03:21:45;;;;;;;;;;;-1.40;93.50;;;;;;5034916;28;1997;-70
2022/12/16 03:24:13;;;;;;;;;;;-1.50;93.60;;;;;;5035376;28;1335;-70
2022/12/16 03:26:52;;;;;;;;;;;-1.50;93.70;;;;;;5036147;28;1002;-70
2022/12/16 03:29:24;;;;;;;;;;;-1.50;93.90;;;;;;5035850;28;1078;-70
2022/12/16 03:31:55;;;;;;;;;;;-1.50;93.80;;;;;;5036080;28;1034;-69
2022/12/16 03:34:26;;;;;;;;;;;-1.60;94.30;;;;;;5036170;28;1369;-70
2022/12/16 03:36:57;;;;;;;;;;;-1.60;94.30;;;;;;5035874;28;994;-71
2022/12/16 03:39:26;;;;;;;;;;;-1.70;94.20;;;;;;5035987;28;1097;-71
2022/12/16 03:41:54;;;;;;;;;;;-1.60;94.10;;;;;;5037235;28;1995;-70
2022/12/16 03:44:22;;;;;;;;;;;-1.60;94.20;;;;;;5034556;28;1449;-70
2022/12/16 03:46:50;;;;;;;;;;;-1.60;94.10;;;;;;5035616;28;1516;-69
2022/12/16 03:49:20;;;;;;;;;;;-1.70;94.40;;;;;;5035035;28;977;-70
2022/12/16 03:51:48;;;;;;;;;;;-1.70;94.20;;;;;;5035473;28;1017;-70
2022/12/16 03:54:17;;;;;;;;;;;-1.80;94.30;;;;;;5035353;28;1284;-70
2022/12/16 03:56:46;;;;;;;;;;;-1.90;94.60;;;;;;5034169;28;1299;-70
2022/12/16 03:59:14;;;;;;;;;;;-2.00;94.70;;;;;;5035926;28;1496;-71
2022/12/16 04:01:41;;;;;;;;;;;-1.90;94.60;;;;;;5035035;28;1169;-73
2022/12/16 04:04:09;;;;;;;;;;;-1.80;94.50;;;;;;5034676;28;1899;-73
2022/12/16 04:06:38;;;;;;;;;;;-2.00;94.80;;;;;;5034958;28;1101;-73
2022/12/16 04:09:06;;;;;;;;;;;-2.00;94.80;;;;;;5035119;28;1152;-73
2022/12/16 04:25:25;;;;;;;;;;;-2.20;95.00;;;;;;5034973;28;1117;-72
2022/12/16 04:27:52;;;;;;;;;;;-2.30;95.20;;;;;;5032690;28;1746;-72
2022/12/16 04:30:21;;;;;;;;;;;-2.30;95.30;;;;;;5034341;28;1863;-73
